Time;durP1;ratioP1;P1;durP2;ratioP2;P2;SDS_P1;SDS_P2;PMS_P1;PMS_P2;Temp;Humidity;BMP_temperature;BMP_pressure;BME280_temperature;BME280_humidity;BME280_pressure;Samples;Min_cycle;Max_cycle;Signal;HPM_P1;HPM_P2
2024/04/06 00:01:30;;;;;;;5.60;2.10;;;;;;;12.27;70.25;97112.41;105004;1269;99882;-77
2024/04/06 00:04:40;;;;;;;6.70;2.70;;;;;;;12.28;70.15;97108.27;105029;1254;99269;-76
2024/04/06 00:07:49;;;;;;;12.90;5.10;;;;;;;12.26;69.91;97104.98;105076;1254;99867;-78
2024/04/06 00:10:57;;;;;;;6.60;3.10;;;;;;;12.21;69.92;97099.65;105062;1257;104656;-78
2024/04/06 00:13:51;;;;;;;8.60;3.90;;;;;;;12.21;69.90;97104.35;104983;1254;100249;-77
2024/04/06 00:16:59;;;;;;;12.20;3.90;;;;;;;12.22;69.93;97108.97;105108;1257;99417;-86
2024/04/06 00:20:07;;;;;;;9.30;4.20;;;;;;;12.22;69.77;97108.22;104993;1256;99330;-83
2024/04/06 00:22:58;;;;;;;13.20;5.70;;;;;;;12.18;69.96;97105.09;105041;1256;99678;-84
2024/04/06 00:26:06;;;;;;;12.00;5.00;;;;;;;12.10;69.94;97107.09;105045;1257;103932;-83
2024/04/06 00:29:14;;;;;;;10.00;4.30;;;;;;;12.06;69.97;97107.77;105029;1257;100148;-84
2024/04/06 00:32:22;;;;;;;9.10;3.40;;;;;;;12.05;70.20;97106.34;105004;1256;100566;-81
2024/04/06 00:34:58;;;;;;;5.40;2.70;;;;;;;12.05;70.21;97110.42;105068;1256;100618;-82
2024/04/06 00:37:25;;;;;;;7.40;2.60;;;;;;;12.05;70.31;97113.99;105000;1254;99673;-79
2024/04/06 00:39:53;;;;;;;4.60;2.30;;;;;;;12.06;70.32;97105.13;105067;1269;103439;-79
2024/04/06 00:42:20;;;;;;;6.10;2.90;;;;;;;12.06;70.34;97105.15;105043;1257;99473;-79
2024/04/06 00:44:48;;;;;;;9.90;2.50;;;;;;;12.10;70.29;97103.02;104947;1264;99317;-79
2024/04/06 00:47:15;;;;;;;5.00;2.40;;;;;;;12.14;70.40;97104.59;105051;1268;99313;-79
2024/04/06 00:49:43;;;;;;;7.50;2.70;;;;;;;12.16;70.40;97101.73;104957;1269;99244;-79
2024/04/06 00:52:11;;;;;;;4.70;2.20;;;;;;;12.17;70.51;97099.35;105090;1256;105139;-78
2024/04/06 00:54:39;;;;;;;4.60;2.20;;;;;;;12.19;70.48;97102.48;105067;1257;99250;-78
2024/04/06 00:57:07;;;;;;;4.50;2.10;;;;;;;12.23;70.60;97097.77;105018;1264;100023;-78
2024/04/06 00:59:36;;;;;;;5.90;2.80;;;;;;;12.25;70.58;97094.73;104925;1256;99238;-79
2024/04/06 01:02:04;;;;;;;5.60;2.20;;;;;;;12.25;70.48;97088.02;105135;1257;99670;-73
2024/04/06 01:04:32;;;;;;;3.10;2.20;;;;;;;12.27;70.46;97088.30;105042;1256;104001;-72
2024/04/06 01:06:59;;;;;;;5.20;2.30;;;;;;;12.32;70.45;97102.21;104983;1256;101414;-72
2024/04/06 01:09:27;;;;;;;4.90;2.10;;;;;;;12.34;70.54;97114.46;105034;1256;99333;-72
2024/04/06 01:11:55;;;;;;;4.40;2.20;;;;;;;12.37;70.46;97119.55;105043;1256;99298;-73
2024/04/06 01:14:23;;;;;;;6.10;2.40;;;;;;;12.37;70.57;97107.06;105004;1256;99272;-73
2024/04/06 01:16:50;;;;;;;4.00;1.90;;;;;;;12.37;70.71;97087.99;105006;1257;105076;-73
2024/04/06 01:19:18;;;;;;;8.10;2.80;;;;;;;12.37;70.83;97086.16;105041;1257;99253;-73
2024/04/06 01:21:45;;;;;;;6.00;2.90;;;;;;;12.35;70.68;97094.76;105017;1264;99259;-73
2024/04/06 01:24:29;;;;;;;5.90;3.20;;;;;;;12.34;70.85;97091.44;105024;1254;99252;-73
2024/04/06 01:26:59;;;;;;;5.90;2.80;;;;;;;12.31;70.79;97086.67;105037;1257;99714;-73
2024/04/06 01:29:30;;;;;;;9.20;3.70;;;;;;;12.31;70.82;97086.01;105007;1254;104588;-73
2024/04/06 01:31:58;;;;;;;5.70;3.00;;;;;;;12.30;70.99;97087.02;104991;1266;100416;-73
2024/04/06 01:34:25;;;;;;;9.40;3.80;;;;;;;12.26;71.14;97085.82;105057;1254;99273;-73
2024/04/06 01:36:53;;;;;;;5.90;2.90;;;;;;;12.22;71.13;97083.98;105013;1264;99330;-72
2024/04/06 01:39:20;;;;;;;4.70;2.90;;;;;;;12.24;71.19;97086.67;105055;1256;99234;-73
2024/04/06 01:41:49;;;;;;;4.80;2.50;;;;;;;12.23;71.19;97082.56;105028;1256;99237;-73
2024/04/06 01:44:17;;;;;;;5.40;2.80;;;;;;;12.22;71.34;97080.41;105096;1257;100693;-72
2024/04/06 01:46:44;;;;;;;6.80;3.20;;;;;;;12.24;71.28;97075.59;104950;1261;99257;-75
2024/04/06 01:49:12;;;;;;;4.00;2.60;;;;;;;12.24;71.36;97071.52;105034;1256;99244;-75
2024/04/06 01:51:40;;;;;;;5.20;2.70;;;;;;;12.22;71.51;97071.70;105027;1256;99173;-75
2024/04/06 01:54:07;;;;;;;5.90;2.90;;;;;;;12.22;71.65;97068.34;105031;1267;103620;-75
2024/04/06 01:56:35;;;;;;;7.40;2.90;;;;;;;12.21;71.66;97064.84;104992;1267;100476;-75
2024/04/06 01:59:03;;;;;;;3.70;2.40;;;;;;;12.23;71.52;97066.20;105044;1256;99311;-75
2024/04/06 02:01:30;;;;;;;5.60;2.40;;;;;;;12.26;71.58;97064.50;105020;1255;99256;-72
2024/04/06 02:03:57;;;;;;;5.40;2.10;;;;;;;12.29;71.47;97065.05;105082;1270;99266;-72
2024/04/06 02:06:25;;;;;;;4.00;2.40;;;;;;;12.31;71.66;97080.21;105067;1257;100457;-72
2024/04/06 02:08:52;;;;;;;3.10;1.90;;;;;;;12.34;71.43;97083.99;105022;1256;100578;-80
2024/04/06 02:11:20;;;;;;;2.70;1.50;;;;;;;12.44;71.21;97086.63;104994;1257;99240;-73
2024/04/06 02:13:47;;;;;;;3.50;1.60;;;;;;;12.55;71.17;97085.02;105052;1254;99272;-72
2024/04/06 02:16:16;;;;;;;3.90;1.90;;;;;;;12.62;70.86;97087.27;105032;1256;99259;-72
2024/04/06 02:18:43;;;;;;;5.30;1.90;;;;;;;12.74;70.58;97090.77;104948;1256;104961;-73
2024/04/06 02:21:11;;;;;;;4.60;1.90;;;;;;;12.85;70.45;97090.84;105005;1254;99386;-72
2024/04/06 02:23:39;;;;;;;5.00;1.40;;;;;;;12.94;70.08;97093.31;104999;1256;99459;-72
2024/04/06 02:26:07;;;;;;;3.40;1.40;;;;;;;13.07;69.69;97092.76;104993;1256;99256;-72
2024/04/06 02:28:35;;;;;;;2.40;1.60;;;;;;;13.18;69.38;97092.95;105030;1270;99765;-72
2024/04/06 02:31:37;;;;;;;3.10;1.50;;;;;;;13.29;69.25;97095.31;104986;1256;103447;-77
2024/04/06 02:34:45;;;;;;;3.00;1.60;;;;;;;13.40;68.80;97097.04;105026;1257;101433;-76
2024/04/06 02:37:53;;;;;;;2.30;1.30;;;;;;;13.52;68.50;97099.90;104942;1257;99263;-76
2024/04/06 02:41:01;;;;;;;3.10;1.40;;;;;;;13.63;68.06;97103.14;105011;1255;99394;-79
2024/04/06 02:43:58;;;;;;;3.20;1.50;;;;;;;13.75;67.47;97109.95;105062;1257;99844;-78
2024/04/06 02:47:06;;;;;;;2.70;1.40;;;;;;;13.87;67.16;97111.69;105020;1258;105072;-81
2024/04/06 02:50:03;;;;;;;2.10;1.50;;;;;;;13.98;66.85;97113.33;104990;1272;101452;-83
2024/04/06 02:52:56;;;;;;;3.20;1.30;;;;;;;14.06;66.72;97113.70;104847;1260;100071;-83
2024/04/06 02:56:04;;;;;;;5.60;2.10;;;;;;;14.13;66.32;97116.39;104908;1260;99269;-82
2024/04/06 02:59:12;;;;;;;4.00;1.40;;;;;;;14.19;66.15;97117.86;105022;1266;99762;-86
2024/04/06 03:02:15;;;;;;;4.40;2.30;;;;;;;14.23;65.70;97120.79;105086;1266;104932;-77
2024/04/06 03:05:18;;;;;;;4.50;1.60;;;;;;;14.29;65.58;97118.45;105026;1255;101223;-80
2024/04/06 03:08:26;;;;;;;4.10;1.50;;;;;;;14.34;65.15;97118.12;105070;1257;100212;-81
2024/04/06 03:11:23;;;;;;;3.70;1.40;;;;;;;14.40;65.06;97119.01;105043;1254;99298;-82
2024/04/06 03:14:32;;;;;;;2.00;1.20;;;;;;;14.45;64.75;97117.87;105042;1267;99762;-81
2024/04/06 03:17:40;;;;;;;3.10;1.30;;;;;;;14.53;64.37;97117.31;104961;1257;105317;-77
2024/04/06 03:20:48;;;;;;;2.90;1.30;;;;;;;14.58;64.41;97115.69;105055;1256;101475;-77
2024/04/06 03:23:56;;;;;;;3.30;1.60;;;;;;;14.59;64.33;97118.52;104992;1254;100175;-79
2024/04/06 03:27:04;;;;;;;4.00;1.50;;;;;;;14.58;64.32;97125.18;104936;1267;100578;-84
2024/04/06 03:30:12;;;;;;;2.00;1.40;;;;;;;14.55;64.20;97129.58;104975;1254;100517;-82
2024/04/06 03:33:21;;;;;;;1.90;1.40;;;;;;;14.52;64.17;97132.88;104979;1257;105035;-77
2024/04/06 03:36:29;;;;;;;1.90;1.50;;;;;;;14.48;64.12;97135.27;105056;1257;100403;-76
2024/04/06 03:39:37;;;;;;;3.30;1.40;;;;;;;14.46;64.09;97136.58;104966;1264;100287;-77
2024/04/06 03:42:41;;;;;;;3.40;1.70;;;;;;;14.44;64.15;97138.11;104995;1257;99263;-77
2024/04/06 03:45:26;;;;;;;2.50;1.30;;;;;;;14.43;64.09;97143.14;105021;1257;100482;-76
2024/04/06 03:48:17;;;;;;;2.80;1.40;;;;;;;14.42;64.14;97145.45;104987;1264;105678;-82
2024/04/06 03:51:18;;;;;;;2.80;1.80;;;;;;;14.42;64.19;97144.58;104918;1257;101161;-82
2024/04/06 03:54:16;;;;;;;4.10;1.60;;;;;;;14.41;64.25;97144.35;104975;1266;100148;-82
2024/04/06 03:57:17;;;;;;;5.10;2.30;;;;;;;14.41;64.26;97148.80;104959;1267;99317;-83
2024/04/06 04:00:21;;;;;;;6.90;1.90;;;;;;;14.42;64.18;97158.48;104963;1259;99769;-83
2024/04/06 04:03:22;;;;;;;2.40;1.40;;;;;;;14.41;64.11;97162.77;104981;1257;105108;-82
2024/04/06 04:06:30;;;;;;;5.30;1.60;;;;;;;14.41;64.06;97162.23;105038;1266;100648;-83
2024/04/06 04:09:38;;;;;;;3.60;1.30;;;;;;;14.42;64.04;97165.60;105006;1266;100042;-77
2024/04/06 04:12:29;;;;;;;2.30;1.60;;;;;;;14.42;63.99;97171.48;105020;1266;99273;-78
2024/04/06 04:15:37;;;;;;;3.10;1.50;;;;;;;14.43;63.79;97178.55;104830;1266;100847;-78
2024/04/06 04:18:46;;;;;;;3.10;1.40;;;;;;;14.45;63.82;97180.33;105080;1256;105057;-83
2024/04/06 04:21:46;;;;;;;3.20;1.60;;;;;;;14.46;63.90;97183.95;104965;1256;101460;-83
2024/04/06 04:24:54;;;;;;;4.40;1.90;;;;;;;14.46;63.82;97187.25;104932;1266;100047;-87
2024/04/06 04:27:22;;;;;;;2.00;1.40;;;;;;;14.47;63.77;97191.69;104969;1259;99335;-80
2024/04/06 04:29:49;;;;;;;2.20;1.40;;;;;;;14.50;63.91;97191.16;104988;1266;100521;-81
2024/04/06 04:32:17;;;;;;;1.70;1.10;;;;;;;14.51;63.86;97197.60;105011;1266;105098;-81
2024/04/06 04:34:45;;;;;;;3.80;1.70;;;;;;;14.53;63.76;97204.39;104966;1264;101142;-84
2024/04/06 04:37:12;;;;;;;3.70;1.40;;;;;;;14.54;63.58;97208.20;105060;1254;100036;-84
2024/04/06 04:39:40;;;;;;;2.20;1.40;;;;;;;14.56;63.63;97212.81;104945;1256;100601;-84
2024/04/06 04:42:07;;;;;;;3.90;1.60;;;;;;;14.57;63.67;97218.11;104976;1257;99947;-84
2024/04/06 04:44:36;;;;;;;2.60;1.40;;;;;;;14.57;63.67;97219.27;105057;1254;104769;-85
2024/04/06 04:47:03;;;;;;;4.00;1.80;;;;;;;14.60;63.62;97222.84;105005;1266;101572;-88
2024/04/06 04:49:31;;;;;;;2.80;1.60;;;;;;;14.62;63.54;97225.33;105006;1257;100098;-88
2024/04/06 04:51:58;;;;;;;2.10;1.30;;;;;;;14.64;63.49;97231.43;105008;1257;99272;-87
2024/04/06 04:54:26;;;;;;;3.50;1.40;;;;;;;14.65;63.56;97238.59;104997;1257;99249;-89
2024/04/06 04:56:54;;;;;;;2.70;1.40;;;;;;;14.68;63.48;97240.23;105056;1267;99272;-89
2024/04/06 04:59:21;;;;;;;3.30;1.30;;;;;;;14.72;63.37;97240.47;104997;1258;101180;-87
2024/04/06 05:01:49;;;;;;;3.90;1.90;;;;;;;14.75;63.50;97241.23;105007;1266;99674;-87
2024/04/06 05:04:16;;;;;;;3.80;2.00;;;;;;;14.77;63.37;97244.52;105019;1257;99379;-84
2024/04/06 05:06:44;;;;;;;4.10;2.00;;;;;;;14.78;63.51;97251.58;105007;1266;99469;-84
2024/04/06 05:09:11;;;;;;;5.30;1.90;;;;;;;14.80;63.37;97256.98;105050;1254;104985;-84
2024/04/06 05:11:39;;;;;;;4.40;2.00;;;;;;;14.81;63.36;97260.48;105068;1257;101496;-82
2024/04/06 05:14:07;;;;;;;3.10;1.90;;;;;;;14.82;63.33;97266.64;104971;1257;99369;-82
2024/04/06 05:16:34;;;;;;;3.70;2.00;;;;;;;14.83;63.37;97271.39;105015;1266;99265;-82
2024/04/06 05:19:05;;;;;;;4.00;2.20;;;;;;;14.84;63.47;97271.62;105045;1258;99189;-82
2024/04/06 05:21:33;;;;;;;3.20;2.00;;;;;;;14.85;63.45;97270.45;104940;1266;104854;-81
2024/04/06 05:24:01;;;;;;;2.30;1.90;;;;;;;14.87;63.36;97269.61;104962;1257;101399;-83
2024/04/06 05:26:29;;;;;;;5.30;2.10;;;;;;;14.88;63.60;97269.20;105041;1254;99285;-82
2024/04/06 05:28:57;;;;;;;3.80;2.40;;;;;;;14.88;63.92;97272.55;104942;1257;99360;-82
2024/04/06 05:31:25;;;;;;;5.20;2.60;;;;;;;14.87;64.11;97272.33;105088;1258;99743;-82
2024/04/06 05:33:52;;;;;;;11.10;3.30;;;;;;;14.88;64.12;97280.00;104964;1254;100553;-83
2024/04/06 05:36:20;;;;;;;5.90;2.30;;;;;;;14.87;64.28;97280.41;105065;1254;99394;-82
2024/04/06 05:38:49;;;;;;;6.90;3.30;;;;;;;14.85;64.28;97279.48;105158;1266;100658;-83
2024/04/06 05:41:16;;;;;;;6.10;2.70;;;;;;;14.84;64.25;97280.95;105155;1256;100591;-78
2024/04/06 05:43:44;;;;;;;6.40;3.30;;;;;;;14.86;64.73;97279.75;105077;1254;99355;-85
2024/04/06 05:46:11;;;;;;;7.50;3.10;;;;;;;14.89;64.74;97280.07;104962;1254;99215;-86
2024/04/06 05:48:39;;;;;;;11.40;6.80;;;;;;;14.90;64.57;97277.71;104959;1257;100546;-85
2024/04/06 05:51:06;;;;;;;12.40;8.90;;;;;;;14.92;63.99;97275.95;104994;1258;99351;-87
2024/04/06 05:53:35;;;;;;;10.70;7.20;;;;;;;14.95;63.66;97280.97;104932;1267;100562;-87
2024/04/06 05:56:03;;;;;;;11.90;5.90;;;;;;;15.00;63.25;97284.96;104903;1266;99292;-86
2024/04/06 05:58:30;;;;;;;8.40;5.40;;;;;;;15.02;63.27;97279.70;105008;1257;105216;-85
2024/04/06 06:00:58;;;;;;;5.70;4.00;;;;;;;15.03;63.22;97280.23;104986;1257;99732;-84
2024/04/06 06:03:25;;;;;;;6.00;4.00;;;;;;;15.06;62.44;97280.97;105224;1271;99256;-78
2024/04/06 06:05:53;;;;;;;5.80;3.40;;;;;;;15.08;62.61;97278.55;105021;1254;99293;-79
2024/04/06 06:08:20;;;;;;;4.60;3.30;;;;;;;15.12;62.23;97280.90;105129;1257;99272;-79
2024/04/06 06:10:48;;;;;;;3.70;2.60;;;;;;;15.14;61.95;97282.27;105070;1254;104653;-79
2024/04/06 06:13:15;;;;;;;3.60;2.20;;;;;;;15.17;61.54;97285.97;105110;1259;101379;-79
2024/04/06 06:15:43;;;;;;;3.20;2.20;;;;;;;15.21;61.33;97286.02;105122;1256;99282;-86
2024/04/06 06:18:11;;;;;;;3.00;2.20;;;;;;;15.23;61.21;97292.06;105026;1257;100592;-85
2024/04/06 06:20:39;;;;;;;7.40;2.60;;;;;;;15.29;61.16;97301.69;105037;1257;99317;-86
2024/04/06 06:23:07;;;;;;;3.30;2.20;;;;;;;15.32;60.96;97303.42;105111;1258;105058;-86
2024/04/06 06:25:34;;;;;;;3.30;2.20;;;;;;;15.33;60.53;97308.30;105013;1257;100503;-85
2024/04/06 06:28:02;;;;;;;3.60;2.20;;;;;;;15.36;60.28;97311.72;105004;1257;99340;-85
2024/04/06 06:30:30;;;;;;;3.60;1.50;;;;;;;15.39;60.37;97314.02;105010;1266;99627;-86
2024/04/06 06:32:58;;;;;;;3.70;2.30;;;;;;;15.42;60.25;97313.91;104973;1257;99721;-86
2024/04/06 06:35:26;;;;;;;5.20;2.60;;;;;;;15.44;60.09;97313.40;105053;1258;105236;-85
2024/04/06 06:37:53;;;;;;;4.50;2.40;;;;;;;15.46;60.13;97315.39;105016;1254;99353;-85
2024/04/06 06:40:21;;;;;;;5.00;1.80;;;;;;;15.50;60.03;97315.01;104738;1254;100060;-85
2024/04/06 06:42:48;;;;;;;4.20;1.60;;;;;;;15.54;60.08;97313.86;105052;1257;99310;-85
2024/04/06 06:45:16;;;;;;;7.30;2.20;;;;;;;15.58;60.38;97315.52;105131;1266;99345;-86
2024/04/06 06:47:43;;;;;;;3.90;2.30;;;;;;;15.62;60.31;97318.20;105195;1256;99377;-86
2024/04/06 06:50:10;;;;;;;6.50;2.70;;;;;;;15.63;59.55;97323.06;105122;1257;99284;-85
2024/04/06 06:52:38;;;;;;;4.10;2.10;;;;;;;15.65;59.35;97327.02;105105;1256;99293;-86
2024/04/06 06:55:06;;;;;;;4.90;2.20;;;;;;;15.67;59.42;97329.77;105093;1257;99321;-86
2024/04/06 06:57:33;;;;;;;2.70;1.60;;;;;;;15.68;59.32;97335.30;105137;1253;99280;-79
2024/04/06 07:00:00;;;;;;;5.20;1.90;;;;;;;15.70;59.34;97332.74;105328;1257;99378;-79
2024/04/06 07:02:28;;;;;;;5.40;1.90;;;;;;;15.73;59.43;97332.73;105022;1267;99266;-86
2024/04/06 07:04:56;;;;;;;2.30;1.80;;;;;;;15.76;59.43;97331.55;104860;1269;99299;-86
2024/04/06 07:07:23;;;;;;;5.00;1.80;;;;;;;15.78;59.17;97330.73;104989;1257;99344;-85
2024/04/06 07:09:51;;;;;;;2.30;1.50;;;;;;;15.78;58.18;97334.86;104959;1253;99760;-85
2024/04/06 07:12:18;;;;;;;5.60;1.60;;;;;;;15.77;58.21;97334.20;104952;1254;99213;-85
2024/04/06 07:14:46;;;;;;;5.10;2.10;;;;;;;15.81;58.41;97333.98;104904;1257;99351;-85
2024/04/06 07:17:15;;;;;;;2.80;1.70;;;;;;;15.85;57.53;97333.08;104931;1257;99371;-85
2024/04/06 07:19:43;;;;;;;1.90;1.70;;;;;;;15.88;57.47;97334.54;104949;1258;99271;-86
2024/04/06 07:22:11;;;;;;;2.60;1.30;;;;;;;15.92;57.93;97339.13;104964;1257;99707;-86
2024/04/06 07:24:39;;;;;;;9.00;1.80;;;;;;;15.97;57.81;97337.56;104952;1257;99356;-85
2024/04/06 07:27:06;;;;;;;6.50;1.40;;;;;;;16.02;57.26;97337.49;104927;1260;101419;-86
2024/04/06 07:29:34;;;;;;;2.60;1.50;;;;;;;16.08;57.11;97331.81;104867;1267;100052;-86
2024/04/06 07:32:02;;;;;;;3.50;1.80;;;;;;;16.14;57.14;97325.27;104902;1266;100800;-86
2024/04/06 07:34:29;;;;;;;3.00;1.70;;;;;;;16.21;56.89;97322.77;105029;1253;99223;-85
2024/04/06 07:36:57;;;;;;;1.80;1.30;;;;;;;16.29;56.79;97326.20;105096;1257;99241;-85
2024/04/06 07:39:24;;;;;;;3.20;1.50;;;;;;;16.38;56.64;97323.95;105088;1254;99440;-86
2024/04/06 07:41:52;;;;;;;5.00;2.00;;;;;;;16.47;56.67;97327.14;105024;1253;99361;-87
2024/04/06 07:44:19;;;;;;;2.80;1.80;;;;;;;16.56;56.74;97329.05;104937;1254;99282;-86
2024/04/06 07:46:46;;;;;;;2.90;1.50;;;;;;;16.71;56.53;97328.52;104933;1256;99278;-80
2024/04/06 07:49:14;;;;;;;5.20;1.30;;;;;;;16.97;55.93;97334.37;105151;1254;99982;-81
2024/04/06 07:51:42;;;;;;;3.00;1.70;;;;;;;17.27;55.69;97331.41;105088;1254;99299;-80
2024/04/06 07:54:09;;;;;;;4.60;1.30;;;;;;;17.52;55.09;97334.74;104910;1258;99660;-83
2024/04/06 07:56:37;;;;;;;2.30;1.30;;;;;;;17.70;54.35;97338.16;105046;1256;99395;-81
2024/04/06 07:59:05;;;;;;;4.30;1.70;;;;;;;17.76;53.45;97338.05;105066;1272;99745;-86
2024/04/06 08:01:32;;;;;;;2.20;1.30;;;;;;;17.85;53.24;97338.19;105058;1256;99307;-81
2024/04/06 08:03:59;;;;;;;3.30;1.50;;;;;;;18.17;53.25;97336.39;105033;1267;99413;-81
2024/04/06 08:06:27;;;;;;;2.90;1.50;;;;;;;18.55;52.65;97332.58;105041;1256;99320;-81
2024/04/06 08:08:55;;;;;;;3.30;1.20;;;;;;;18.61;52.12;97333.23;105023;1257;99378;-80
2024/04/06 08:11:23;;;;;;;2.70;1.20;;;;;;;18.48;51.59;97333.83;105082;1257;99730;-81
2024/04/06 08:13:50;;;;;;;4.20;1.20;;;;;;;18.49;51.59;97335.30;105048;1252;105044;-81
2024/04/06 08:16:18;;;;;;;3.00;1.20;;;;;;;18.57;51.50;97334.39;105051;1256;101448;-81
2024/04/06 08:18:45;;;;;;;3.00;1.10;;;;;;;18.82;51.23;97329.79;105077;1256;99633;-86
2024/04/06 08:21:13;;;;;;;4.90;1.50;;;;;;;18.91;50.95;97330.39;105104;1256;99256;-86
2024/04/06 08:23:40;;;;;;;2.60;1.10;;;;;;;18.86;50.58;97324.52;105042;1256;100613;-85
2024/04/06 08:26:08;;;;;;;4.40;1.60;;;;;;;18.67;50.51;97322.43;104945;1257;99823;-86
2024/04/06 08:28:35;;;;;;;2.50;1.40;;;;;;;18.82;50.93;97322.94;104939;1266;99225;-86
2024/04/06 08:31:03;;;;;;;3.50;1.20;;;;;;;19.06;50.62;97325.84;104954;1257;99296;-81
2024/04/06 08:33:31;;;;;;;5.80;1.30;;;;;;;19.11;50.20;97320.67;105117;1258;99316;-85
2024/04/06 08:36:00;;;;;;;3.30;1.50;;;;;;;19.13;50.06;97319.37;105074;1257;100492;-86
2024/04/06 08:38:27;;;;;;;4.00;1.20;;;;;;;19.04;50.06;97320.82;105032;1254;103779;-87
2024/04/06 08:40:56;;;;;;;6.30;1.30;;;;;;;19.08;50.11;97325.75;105095;1256;101315;-86
2024/04/06 08:43:28;;;;;;;2.60;2.10;;;;;;;18.96;49.80;97325.64;105081;1267;99360;-87
2024/04/06 08:45:55;;;;;;;1.60;0.90;;;;;;;18.86;49.99;97329.14;105097;1267;99285;-82
2024/04/06 08:48:24;;;;;;;5.40;1.30;;;;;;;18.99;49.94;97329.92;105051;1254;101035;-82
2024/04/06 08:50:53;;;;;;;2.30;1.00;;;;;;;18.99;49.81;97329.70;105093;1256;105059;-82
2024/04/06 08:53:21;;;;;;;1.50;1.00;;;;;;;18.98;50.06;97330.90;105103;1254;101644;-85
2024/04/06 08:55:50;;;;;;;1.90;1.10;;;;;;;18.98;50.01;97327.63;105043;1267;100579;-87
2024/04/06 08:58:18;;;;;;;7.60;1.50;;;;;;;18.96;49.92;97325.77;105029;1273;99514;-85
2024/04/06 09:00:49;;;;;;;4.90;1.30;;;;;;;18.90;50.04;97325.89;105075;1257;99798;-87
2024/04/06 09:03:16;;;;;;;2.80;1.20;;;;;;;18.94;49.88;97330.12;105094;1256;104797;-87
2024/04/06 09:05:45;;;;;;;1.70;1.10;;;;;;;19.01;49.84;97335.36;105026;1256;100609;-86
2024/04/06 09:08:16;;;;;;;3.90;1.30;;;;;;;19.02;49.89;97337.39;105164;1256;100071;-86
2024/04/06 09:10:46;;;;;;;2.80;1.50;;;;;;;19.06;49.94;97339.21;105064;1267;99334;-86
2024/04/06 09:13:14;;;;;;;4.40;2.00;;;;;;;19.10;49.85;97340.14;105100;1257;99775;-86
2024/04/06 09:15:42;;;;;;;4.00;2.00;;;;;;;19.10;49.29;97340.42;105126;1256;104888;-81
2024/04/06 09:18:09;;;;;;;2.50;1.60;;;;;;;19.16;49.46;97335.58;105077;1254;99251;-82
2024/04/06 09:20:37;;;;;;;4.50;2.10;;;;;;;19.26;48.97;97333.33;105005;1259;99885;-81
2024/04/06 09:23:05;;;;;;;4.40;1.30;;;;;;;19.26;48.90;97332.05;105033;1257;100466;-81
2024/04/06 09:25:32;;;;;;;3.90;1.50;;;;;;;19.27;49.40;97327.63;105043;1257;99190;-81
2024/04/06 09:28:04;;;;;;;3.60;1.60;;;;;;;19.28;49.28;97327.63;105068;1267;103556;-82
2024/04/06 09:30:44;;;;;;;3.10;1.70;;;;;;;19.40;48.92;97329.64;105109;1256;101531;-86
2024/04/06 09:33:11;;;;;;;3.40;1.80;;;;;;;19.42;48.96;97324.77;105020;1256;99942;-82
2024/04/06 09:35:40;;;;;;;3.40;1.70;;;;;;;19.42;49.27;97321.83;104968;1256;100697;-83
2024/04/06 09:38:14;;;;;;;2.40;1.60;;;;;;;19.43;49.34;97323.04;104958;1268;99279;-82
2024/04/06 09:40:46;;;;;;;1.60;1.50;;;;;;;19.47;49.54;97322.98;105022;1252;112697;-80
2024/04/06 09:43:14;;;;;;;3.40;1.30;;;;;;;19.53;49.00;97321.38;105008;1256;101283;-79
2024/04/06 09:45:43;;;;;;;1.80;1.40;;;;;;;19.71;48.81;97324.27;104724;1261;99301;-79
2024/04/06 09:48:11;;;;;;;4.20;1.50;;;;;;;19.79;48.94;97320.78;105066;1268;99341;-80
2024/04/06 09:50:40;;;;;;;2.70;1.60;;;;;;;19.76;48.99;97321.92;105124;1254;99773;-84
2024/04/06 09:53:10;;;;;;;4.00;2.00;;;;;;;19.69;49.16;97323.33;104984;1257;105194;-84
2024/04/06 09:55:40;;;;;;;3.30;1.40;;;;;;;19.75;49.06;97326.14;104931;1256;100522;-83
2024/04/06 09:58:09;;;;;;;4.60;1.60;;;;;;;19.73;48.77;97330.41;104968;1252;99636;-83
2024/04/06 10:00:38;;;;;;;2.20;1.30;;;;;;;19.62;48.97;97326.22;104995;1255;99279;-84
2024/04/06 10:03:05;;;;;;;2.90;1.50;;;;;;;19.64;49.01;97327.76;104960;1260;99193;-84
2024/04/06 10:05:46;;;;;;;3.90;1.80;;;;;;;19.84;49.33;97328.44;104926;1269;104874;-83
2024/04/06 10:08:17;;;;;;;2.60;1.50;;;;;;;20.08;49.26;97328.07;104891;1254;101702;-84
2024/04/06 10:10:46;;;;;;;4.10;1.50;;;;;;;20.29;48.51;97322.80;104885;1257;99696;-79
2024/04/06 10:13:21;;;;;;;4.00;1.60;;;;;;;20.40;48.23;97322.45;105078;1267;99254;-83
2024/04/06 10:15:48;;;;;;;2.20;1.50;;;;;;;20.53;48.00;97324.95;104935;1256;99203;-83
2024/04/06 10:18:17;;;;;;;3.00;1.50;;;;;;;20.67;47.86;97326.40;105066;1256;104850;-83
2024/04/06 10:20:44;;;;;;;4.30;1.70;;;;;;;20.81;47.65;97328.61;104957;1260;101357;-83
2024/04/06 10:23:14;;;;;;;2.90;1.70;;;;;;;20.96;47.68;97328.79;104937;1254;100083;-83
2024/04/06 10:25:42;;;;;;;4.20;1.90;;;;;;;21.04;47.60;97322.21;105011;1276;99288;-82
2024/04/06 10:28:11;;;;;;;2.70;1.70;;;;;;;21.09;47.37;97318.30;104959;1257;99279;-84
2024/04/06 10:30:41;;;;;;;3.10;1.90;;;;;;;21.15;47.15;97316.91;104969;1255;105099;-80
2024/04/06 10:33:09;;;;;;;3.10;1.80;;;;;;;21.20;46.95;97310.98;105077;1255;101250;-80
2024/04/06 10:35:37;;;;;;;4.10;1.60;;;;;;;21.19;47.05;97310.16;105103;1267;99958;-80
2024/04/06 10:38:07;;;;;;;2.50;1.30;;;;;;;21.32;47.20;97307.20;105022;1256;99289;-81
2024/04/06 10:40:37;;;;;;;1.80;1.40;;;;;;;21.45;47.30;97307.46;105047;1258;99753;-80
2024/04/06 10:43:04;;;;;;;5.80;1.50;;;;;;;21.43;46.70;97304.34;105093;1254;104740;-80
2024/04/06 10:45:32;;;;;;;1.50;1.20;;;;;;;21.34;46.25;97301.70;105167;1258;99228;-84
2024/04/06 10:47:59;;;;;;;4.80;1.10;;;;;;;21.28;46.24;97298.70;104902;1254;99751;-85
2024/04/06 10:50:28;;;;;;;2.40;1.80;;;;;;;21.36;46.20;97296.58;104944;1257;99346;-85
2024/04/06 10:52:57;;;;;;;2.50;1.70;;;;;;;21.29;46.07;97291.84;104898;1257;99740;-84
2024/04/06 10:55:26;;;;;;;5.50;1.50;;;;;;;21.17;46.40;97291.54;104939;1256;103386;-85
2024/04/06 10:57:56;;;;;;;2.60;1.70;;;;;;;21.13;46.25;97293.80;104913;1256;101282;-83
2024/04/06 11:00:26;;;;;;;4.10;1.50;;;;;;;21.10;45.71;97291.46;104998;1253;100611;-84
2024/04/06 11:03:01;;;;;;;6.00;2.10;;;;;;;21.12;45.82;97290.85;104750;1254;167230;-85
2024/04/06 11:05:30;;;;;;;3.00;1.40;;;;;;;21.02;46.12;97288.64;104955;1256;99776;-85
2024/04/06 11:07:58;;;;;;;3.50;1.60;;;;;;;21.00;46.33;97294.15;105041;1271;103995;-81
2024/04/06 11:10:25;;;;;;;4.00;1.70;;;;;;;21.09;46.20;97289.86;105148;1256;101611;-80
2024/04/06 11:12:53;;;;;;;2.50;1.30;;;;;;;21.20;46.13;97283.77;104994;1254;99291;-80
2024/04/06 11:15:23;;;;;;;3.80;2.00;;;;;;;21.24;46.03;97284.13;105012;1254;99279;-81
2024/04/06 11:17:51;;;;;;;3.30;1.80;;;;;;;21.17;45.84;97285.47;105085;1270;100489;-82
2024/04/06 11:20:19;;;;;;;2.20;1.50;;;;;;;21.05;46.00;97288.30;105022;1256;105113;-82
2024/04/06 11:22:46;;;;;;;3.20;2.20;;;;;;;21.06;46.18;97286.59;104979;1257;101574;-80
2024/04/06 11:25:20;;;;;;;2.90;2.20;;;;;;;21.07;46.37;97284.67;105009;1257;99977;-80
2024/04/06 11:27:49;;;;;;;2.70;1.80;;;;;;;21.06;46.54;97288.02;104940;1256;100620;-86
2024/04/06 11:30:18;;;;;;;4.30;1.60;;;;;;;21.16;46.75;97284.69;104870;1254;100968;-80
2024/04/06 11:32:48;;;;;;;2.20;1.40;;;;;;;21.29;46.16;97285.30;104879;1257;105141;-86
2024/04/06 11:35:16;;;;;;;5.00;1.90;;;;;;;21.52;45.18;97286.44;104828;1256;101428;-85
2024/04/06 11:37:44;;;;;;;4.00;1.80;;;;;;;21.76;45.42;97286.20;104945;1256;100682;-85
2024/04/06 11:40:12;;;;;;;2.30;1.70;;;;;;;21.85;45.12;97292.37;104930;1269;99289;-85
2024/04/06 11:42:39;;;;;;;3.50;2.00;;;;;;;21.92;45.38;97291.70;104864;1254;99769;-83
2024/04/06 11:45:07;;;;;;;2.80;1.30;;;;;;;22.05;44.62;97286.95;105060;1256;103946;-85
2024/04/06 11:47:35;;;;;;;2.70;1.60;;;;;;;22.14;43.75;97286.16;105127;1257;101305;-86
2024/04/06 11:50:03;;;;;;;2.70;1.90;;;;;;;22.22;42.86;97281.52;105193;1254;99744;-81
2024/04/06 11:52:30;;;;;;;3.10;1.70;;;;;;;22.30;43.14;97277.16;105502;1256;99282;-81
2024/04/06 11:54:58;;;;;;;2.70;1.50;;;;;;;22.52;43.48;97271.39;105507;1256;99718;-81